createdAt,value
2018-12-06T00:00:43.844Z,13.20
2018-12-06T00:03:11.551Z,13.33
2018-12-06T00:05:39.126Z,13.00
2018-12-06T00:08:14.118Z,13.23
2018-12-06T00:10:42.849Z,13.43
2018-12-06T00:13:10.501Z,14.50
2018-12-06T00:15:38.334Z,15.40
2018-12-06T00:18:05.956Z,14.43
2018-12-06T00:20:33.595Z,14.87
2018-12-06T00:23:01.333Z,13.80
2018-12-06T00:26:03.718Z,15.00
2018-12-06T00:28:31.350Z,15.60
2018-12-06T00:31:03.761Z,13.80
2018-12-06T00:33:31.327Z,14.33
2018-12-06T00:35:58.869Z,14.50
2018-12-06T00:38:26.422Z,15.23
2018-12-06T00:40:53.935Z,16.00
2018-12-06T00:43:23.114Z,15.27
2018-12-06T00:45:50.729Z,14.33
2018-12-06T00:48:18.333Z,15.90
2018-12-06T00:50:45.870Z,14.50
2018-12-06T00:53:13.533Z,15.50
2018-12-06T00:55:41.210Z,15.60
2018-12-06T00:58:08.798Z,14.30
2018-12-06T01:00:36.283Z,15.90
2018-12-06T01:03:05.180Z,15.20
2018-12-06T01:05:32.713Z,16.57
2018-12-06T01:08:00.354Z,16.87
2018-12-06T01:10:28.209Z,15.73
2018-12-06T01:12:58.089Z,17.47
2018-12-06T01:15:25.793Z,17.03
2018-12-06T01:17:56.419Z,15.23
2018-12-06T01:20:25.254Z,18.00
2018-12-06T01:22:52.757Z,17.27
2018-12-06T01:25:20.438Z,16.17
2018-12-06T01:27:48.158Z,16.87
2018-12-06T01:30:15.671Z,17.10
2018-12-06T01:32:43.220Z,16.40
2018-12-06T01:35:10.869Z,18.00
2018-12-06T01:37:38.494Z,18.70
2018-12-06T01:40:06.151Z,16.43
2018-12-06T01:42:33.679Z,16.90
2018-12-06T01:45:01.229Z,18.87
2018-12-06T01:47:28.802Z,19.10
2018-12-06T01:49:56.442Z,17.63
2018-12-06T01:52:24.158Z,17.67
2018-12-06T01:54:51.773Z,17.10
2018-12-06T01:57:21.121Z,18.60
2018-12-06T01:59:48.722Z,19.97
2018-12-06T02:02:16.397Z,19.93
2018-12-06T02:04:44.032Z,19.37
2018-12-06T02:07:11.774Z,19.90
2018-12-06T02:09:39.292Z,17.10
2018-12-06T02:12:06.973Z,17.67
2018-12-06T02:14:34.783Z,17.97
2018-12-06T02:17:02.371Z,18.40
2018-12-06T02:19:29.958Z,18.40
2018-12-06T02:21:57.572Z,19.00
2018-12-06T02:24:25.134Z,19.90
2018-12-06T02:26:52.794Z,18.03
2018-12-06T02:29:20.878Z,19.07
2018-12-06T02:31:49.046Z,18.73
2018-12-06T02:34:17.858Z,19.10
2018-12-06T02:36:45.519Z,19.20
2018-12-06T02:39:13.146Z,20.70
2018-12-06T02:41:40.725Z,20.67
2018-12-06T02:44:08.754Z,20.07
2018-12-06T02:46:36.391Z,19.17
2018-12-06T02:49:04.002Z,20.73
2018-12-06T02:51:31.737Z,20.57
2018-12-06T02:53:59.429Z,19.80
2018-12-06T02:56:27.056Z,20.40
2018-12-06T02:58:54.777Z,20.10
2018-12-06T03:04:46.586Z,20.93
2018-12-06T03:07:14.134Z,20.80
2018-12-06T03:09:41.679Z,20.13
2018-12-06T03:12:09.293Z,20.73
2018-12-06T03:14:36.913Z,21.83
2018-12-06T03:17:07.072Z,19.80
2018-12-06T03:19:34.803Z,19.67
2018-12-06T03:22:02.413Z,21.17
2018-12-06T03:24:30.056Z,20.07
2018-12-06T03:26:57.585Z,20.30
2018-12-06T03:29:25.378Z,23.03
2018-12-06T03:31:53.011Z,22.00
2018-12-06T03:34:20.777Z,20.13
2018-12-06T03:36:48.318Z,19.03
2018-12-06T03:39:16.967Z,20.10
2018-12-06T03:41:44.613Z,21.93
2018-12-06T03:44:12.121Z,21.07
2018-12-06T03:46:39.751Z,22.53
2018-12-06T03:49:07.377Z,23.10
2018-12-06T03:51:34.902Z,21.17
2018-12-06T03:54:02.501Z,22.87
2018-12-06T03:56:30.007Z,20.60
2018-12-06T03:58:57.518Z,23.20
2018-12-06T04:01:25.637Z,21.77
2018-12-06T04:03:53.432Z,21.50
2018-12-06T04:06:24.283Z,21.03
2018-12-06T04:08:51.871Z,21.17
2018-12-06T04:11:19.410Z,23.13
2018-12-06T04:13:46.925Z,21.17
2018-12-06T04:16:14.490Z,23.20
2018-12-06T04:18:42.030Z,23.97
2018-12-06T04:21:09.601Z,22.77
2018-12-06T04:23:37.110Z,23.20
2018-12-06T04:26:04.762Z,22.17
2018-12-06T04:28:32.271Z,24.13
2018-12-06T04:30:59.893Z,23.03
2018-12-06T04:33:29.426Z,23.27
2018-12-06T04:35:57.045Z,23.33
2018-12-06T04:38:25.949Z,22.70
2018-12-06T04:40:53.502Z,23.40
2018-12-06T04:43:21.134Z,23.40
2018-12-06T04:45:49.733Z,22.53
2018-12-06T04:48:21.907Z,22.40
2018-12-06T04:50:46.839Z,24.93
2018-12-06T04:53:14.645Z,25.00
2018-12-06T04:55:42.169Z,24.73
2018-12-06T04:58:09.668Z,26.07
2018-12-06T05:00:37.329Z,20.50
2018-12-06T05:03:05.023Z,24.00
2018-12-06T05:05:32.964Z,24.90
2018-12-06T05:08:00.628Z,24.67
2018-12-06T05:10:28.367Z,25.10
2018-12-06T05:12:55.947Z,24.27
2018-12-06T05:15:25.146Z,23.27
2018-12-06T05:17:52.695Z,26.50
2018-12-06T05:20:20.281Z,28.37
2018-12-06T05:22:47.916Z,24.87
2018-12-06T05:25:15.559Z,26.37
2018-12-06T05:27:48.041Z,29.17
2018-12-06T05:30:15.658Z,26.77
2018-12-06T05:32:43.282Z,25.40
2018-12-06T05:35:10.952Z,25.97
2018-12-06T05:37:38.573Z,26.53
2018-12-06T05:40:06.325Z,27.40
2018-12-06T05:42:33.887Z,26.67
2018-12-06T05:45:01.432Z,27.57
2018-12-06T05:47:28.984Z,25.23
2018-12-06T05:49:56.481Z,26.57
2018-12-06T05:52:24.104Z,27.00
2018-12-06T05:54:52.391Z,28.63
2018-12-06T05:57:20.092Z,26.77
2018-12-06T05:59:48.336Z,27.33
2018-12-06T06:02:15.907Z,27.00
2018-12-06T06:04:43.510Z,28.40
2018-12-06T06:07:11.337Z,28.17
2018-12-06T06:09:39.223Z,29.27
2018-12-06T06:12:06.989Z,28.63
2018-12-06T06:14:34.531Z,28.77
2018-12-06T06:17:02.101Z,28.73
2018-12-06T06:19:29.854Z,27.07
2018-12-06T06:21:57.508Z,25.20
2018-12-06T06:24:25.213Z,27.70
2018-12-06T06:26:52.770Z,28.03
2018-12-06T06:29:20.341Z,28.77
2018-12-06T06:31:47.894Z,27.07
2018-12-06T06:34:15.382Z,28.73
2018-12-06T06:36:43.329Z,29.60
2018-12-06T06:39:11.032Z,28.33
2018-12-06T06:41:39.045Z,28.27
2018-12-06T06:44:06.657Z,31.83
2018-12-06T06:46:34.194Z,32.00
2018-12-06T06:49:03.124Z,28.80
2018-12-06T06:51:30.655Z,29.83
2018-12-06T06:53:58.217Z,30.67
2018-12-06T06:56:25.814Z,29.00
2018-12-06T06:58:53.489Z,27.80
2018-12-06T07:01:21.169Z,29.90
2018-12-06T07:03:48.728Z,32.97
2018-12-06T07:06:16.847Z,31.97
2018-12-06T07:08:44.487Z,32.50
2018-12-06T07:11:12.044Z,33.30
2018-12-06T07:13:39.563Z,31.47
2018-12-06T07:16:07.249Z,32.67
2018-12-06T07:18:34.829Z,32.63
2018-12-06T07:21:02.385Z,30.60
2018-12-06T07:23:29.901Z,30.00
2018-12-06T07:25:57.471Z,31.20
2018-12-06T07:28:25.185Z,31.53
2018-12-06T07:30:52.940Z,34.80
2018-12-06T07:33:20.511Z,31.53
2018-12-06T07:35:48.445Z,33.87
2018-12-06T07:38:16.067Z,33.40
2018-12-06T07:40:43.775Z,35.00
2018-12-06T07:43:11.402Z,33.37
2018-12-06T07:45:39.170Z,32.90
2018-12-06T07:48:06.718Z,29.07
2018-12-06T07:50:34.310Z,34.10
2018-12-06T07:53:02.094Z,33.73
2018-12-06T07:55:29.913Z,34.30
2018-12-06T07:57:57.476Z,32.20
2018-12-06T08:00:25.027Z,33.30
2018-12-06T08:02:52.686Z,33.33
2018-12-06T08:05:20.389Z,36.67
2018-12-06T08:07:47.938Z,33.90
2018-12-06T08:10:15.713Z,33.20
2018-12-06T08:12:43.298Z,33.57
2018-12-06T08:15:11.083Z,33.20
2018-12-06T08:17:38.815Z,33.47
2018-12-06T08:20:07.169Z,32.50
2018-12-06T08:22:34.968Z,36.23
2018-12-06T08:25:02.629Z,35.67
2018-12-06T08:27:30.232Z,37.03
2018-12-06T08:29:58.054Z,35.30
2018-12-06T08:32:25.629Z,35.13
2018-12-06T08:34:53.519Z,36.10
2018-12-06T08:37:21.121Z,32.30
2018-12-06T08:39:48.625Z,34.93
2018-12-06T08:42:16.217Z,36.00
2018-12-06T08:44:43.761Z,34.20
2018-12-06T08:47:11.475Z,35.30
2018-12-06T08:49:39.039Z,35.57
2018-12-06T08:52:07.358Z,34.20
2018-12-06T08:54:35.203Z,35.90
2018-12-06T08:57:02.729Z,35.43
2018-12-06T08:59:30.449Z,35.63
2018-12-06T09:01:58.082Z,36.57
2018-12-06T09:04:25.739Z,37.17
2018-12-06T09:06:53.283Z,34.30
2018-12-06T09:09:20.820Z,37.77
2018-12-06T09:11:48.407Z,39.03
2018-12-06T09:14:16.440Z,37.87
2018-12-06T09:16:44.161Z,37.43
2018-12-06T09:19:11.775Z,38.40
2018-12-06T09:21:39.502Z,39.80
2018-12-06T09:24:07.378Z,38.23
2018-12-06T09:26:34.921Z,36.90
2018-12-06T09:29:02.558Z,40.00
2018-12-06T09:31:30.224Z,37.47
2018-12-06T09:34:06.699Z,39.90
2018-12-06T09:36:35.209Z,39.77
2018-12-06T09:39:05.194Z,41.23
2018-12-06T09:41:34.569Z,41.30
2018-12-06T09:44:02.502Z,41.50
2018-12-06T09:46:33.069Z,39.70
2018-12-06T09:49:02.062Z,39.17
2018-12-06T09:51:29.801Z,38.60
2018-12-06T09:53:57.364Z,39.77
2018-12-06T09:56:25.012Z,38.47
2018-12-06T09:58:52.744Z,38.40
2018-12-06T10:01:20.281Z,40.33
2018-12-06T10:03:47.886Z,40.13
2018-12-06T10:06:15.454Z,39.40
2018-12-06T10:08:43.057Z,39.87
2018-12-06T10:11:10.573Z,40.60
2018-12-06T10:13:38.169Z,39.93
2018-12-06T10:16:05.741Z,40.00
2018-12-06T10:18:33.344Z,40.70
2018-12-06T10:21:01.057Z,39.20
2018-12-06T10:23:29.051Z,40.80
2018-12-06T10:25:56.790Z,38.77
2018-12-06T10:28:24.552Z,39.43
2018-12-06T10:30:52.362Z,38.30
2018-12-06T10:33:20.038Z,38.80
2018-12-06T10:35:47.573Z,38.43
2018-12-06T10:38:15.184Z,37.57
2018-12-06T10:40:42.828Z,38.63
2018-12-06T10:43:10.460Z,37.67
2018-12-06T10:45:38.206Z,36.60
2018-12-06T10:48:05.715Z,36.73
2018-12-06T10:50:33.217Z,38.23
2018-12-06T10:53:00.902Z,39.60
2018-12-06T10:55:28.576Z,39.00
2018-12-06T10:57:56.433Z,38.57
2018-12-06T11:00:29.910Z,38.27
2018-12-06T11:03:03.342Z,39.83
2018-12-06T11:05:31.016Z,37.57
2018-12-06T11:07:58.953Z,36.00
2018-12-06T11:10:26.523Z,36.70
2018-12-06T11:12:54.116Z,39.17
2018-12-06T11:15:21.747Z,35.77
2018-12-06T11:17:49.309Z,37.27
2018-12-06T11:20:16.934Z,39.20
2018-12-06T11:22:45.005Z,37.70
2018-12-06T11:25:12.721Z,38.67
2018-12-06T11:27:40.285Z,38.87
2018-12-06T11:30:08.213Z,41.80
2018-12-06T11:32:35.949Z,42.67
2018-12-06T11:35:03.885Z,40.70
2018-12-06T11:37:31.455Z,40.40
2018-12-06T11:39:59.004Z,42.07
2018-12-06T11:42:26.603Z,42.47
2018-12-06T11:44:54.361Z,43.27
2018-12-06T11:47:21.908Z,42.63
2018-12-06T11:49:49.631Z,41.17
2018-12-06T11:52:17.196Z,42.00
2018-12-06T11:54:44.787Z,40.73
2018-12-06T11:57:12.582Z,41.73
2018-12-06T11:59:40.116Z,40.40
2018-12-06T12:02:10.144Z,38.40
2018-12-06T12:04:37.389Z,43.93
2018-12-06T12:07:05.184Z,37.20
2018-12-06T12:09:32.794Z,37.47
2018-12-06T12:12:00.333Z,41.33
2018-12-06T12:14:30.793Z,39.20
2018-12-06T12:16:58.353Z,34.63
2018-12-06T12:19:26.272Z,39.50
2018-12-06T12:21:53.934Z,37.63
2018-12-06T12:24:21.541Z,38.77
2018-12-06T12:26:49.069Z,37.80
2018-12-06T12:29:16.730Z,35.90
2018-12-06T12:31:44.385Z,38.27
2018-12-06T12:34:12.908Z,36.57
2018-12-06T12:36:41.038Z,34.97
2018-12-06T12:39:10.712Z,45.40
2018-12-06T12:41:39.053Z,35.67
2018-12-06T12:44:06.679Z,36.03
2018-12-06T12:46:34.425Z,33.80
2018-12-06T12:49:02.469Z,35.63
2018-12-06T12:51:29.986Z,36.17
2018-12-06T12:53:57.730Z,32.47
2018-12-06T12:56:25.297Z,32.63
2018-12-06T12:58:52.955Z,30.50
2018-12-06T13:01:20.509Z,31.87
2018-12-06T13:03:48.278Z,29.70
2018-12-06T13:06:15.831Z,30.07
2018-12-06T13:08:43.454Z,29.30
2018-12-06T13:11:11.303Z,27.70
2018-12-06T13:13:39.315Z,26.17
2018-12-06T13:16:07.079Z,25.40
2018-12-06T13:18:34.714Z,25.73
2018-12-06T13:21:02.589Z,25.10
2018-12-06T13:23:30.219Z,23.70
2018-12-06T13:25:57.810Z,24.40
2018-12-06T13:28:25.501Z,22.60
2018-12-06T13:30:53.187Z,25.43
2018-12-06T13:33:20.776Z,21.70
2018-12-06T13:35:48.366Z,24.70
2018-12-06T13:38:16.167Z,22.37
2018-12-06T13:40:43.719Z,22.00
2018-12-06T13:43:11.469Z,21.07
2018-12-06T13:45:39.098Z,20.70
2018-12-06T13:48:07.241Z,23.10
2018-12-06T13:50:35.862Z,21.10
2018-12-06T13:53:03.508Z,22.67
2018-12-06T13:55:31.181Z,22.40
2018-12-06T13:57:58.726Z,22.33
2018-12-06T14:00:26.622Z,22.40
2018-12-06T14:02:54.282Z,20.43
2018-12-06T14:05:21.850Z,21.53
2018-12-06T14:07:49.474Z,22.90
2018-12-06T14:10:17.146Z,23.30
2018-12-06T14:12:45.059Z,22.70
2018-12-06T14:15:12.874Z,22.03
2018-12-06T14:17:45.858Z,25.27
2018-12-06T14:20:13.401Z,22.60
2018-12-06T14:22:41.267Z,24.10
2018-12-06T14:25:09.185Z,24.57
2018-12-06T14:27:36.904Z,22.73
2018-12-06T14:30:05.366Z,25.03
2018-12-06T14:32:32.980Z,24.43
2018-12-06T14:35:00.562Z,27.60
2018-12-06T14:37:28.555Z,24.73
2018-12-06T14:39:56.231Z,24.43
2018-12-06T14:42:23.834Z,24.47
2018-12-06T14:44:51.455Z,23.60
2018-12-06T14:47:19.097Z,21.40
2018-12-06T14:49:46.875Z,22.67
2018-12-06T14:52:14.485Z,22.80
2018-12-06T14:54:42.253Z,24.10
2018-12-06T14:57:10.427Z,23.43
2018-12-06T14:59:37.994Z,22.77
2018-12-06T15:02:05.944Z,24.67
2018-12-06T15:04:34.025Z,23.00
2018-12-06T15:07:01.646Z,21.90
2018-12-06T15:09:29.601Z,23.97
2018-12-06T15:11:57.701Z,24.33
2018-12-06T15:14:25.709Z,22.83
2018-12-06T15:16:53.578Z,22.50
2018-12-06T15:19:21.444Z,23.23
2018-12-06T15:21:49.074Z,23.63
2018-12-06T15:24:17.849Z,22.33
2018-12-06T15:26:45.458Z,22.27
2018-12-06T15:29:13.076Z,22.80
2018-12-06T15:31:41.250Z,22.83
2018-12-06T15:34:08.899Z,21.83
2018-12-06T15:36:37.315Z,23.37
2018-12-06T15:39:06.976Z,23.80
2018-12-06T15:41:36.709Z,21.10
2018-12-06T15:44:04.473Z,22.60
2018-12-06T15:46:32.249Z,22.73
2018-12-06T15:48:59.766Z,21.10
2018-12-06T15:51:28.281Z,21.37
2018-12-06T15:53:57.034Z,21.90
2018-12-06T15:56:24.705Z,20.40
2018-12-06T15:58:52.675Z,23.03
2018-12-06T16:01:20.402Z,22.70
2018-12-06T16:03:48.014Z,24.23
2018-12-06T16:06:15.968Z,23.57
2018-12-06T16:08:43.666Z,22.43
2018-12-06T16:11:12.667Z,23.87
2018-12-06T16:13:40.896Z,24.80
2018-12-06T16:16:08.536Z,22.97
2018-12-06T16:18:36.062Z,22.10
2018-12-06T16:21:04.019Z,24.50
2018-12-06T16:23:31.590Z,22.70
2018-12-06T16:25:59.148Z,23.47
2018-12-06T16:28:26.685Z,22.60
2018-12-06T16:30:54.404Z,24.40
2018-12-06T16:33:21.960Z,22.53
2018-12-06T16:35:49.498Z,23.20
2018-12-06T16:38:17.066Z,23.40
2018-12-06T16:40:44.667Z,24.90
2018-12-06T16:43:12.277Z,23.40
2018-12-06T16:45:39.833Z,23.60
2018-12-06T16:48:07.377Z,24.17
2018-12-06T16:50:35.075Z,24.03
2018-12-06T16:53:02.693Z,24.57
2018-12-06T16:55:30.260Z,22.17
2018-12-06T16:57:57.924Z,22.30
2018-12-06T17:00:25.576Z,23.80
2018-12-06T17:02:53.099Z,24.27
2018-12-06T17:05:20.897Z,24.20
2018-12-06T17:07:48.582Z,24.50
2018-12-06T17:10:16.157Z,23.90
2018-12-06T17:12:43.971Z,26.70
2018-12-06T17:15:12.170Z,25.37
2018-12-06T17:17:39.770Z,25.80
2018-12-06T17:20:07.885Z,24.70
2018-12-06T17:22:35.559Z,25.80
2018-12-06T17:25:03.623Z,25.10
2018-12-06T17:27:31.270Z,23.63
2018-12-06T17:29:59.382Z,26.30
2018-12-06T17:32:27.132Z,25.63
2018-12-06T17:34:54.647Z,25.90
2018-12-06T17:37:22.138Z,25.30
2018-12-06T17:39:49.697Z,25.27
2018-12-06T17:42:17.313Z,25.00
2018-12-06T17:44:44.893Z,23.63
2018-12-06T17:47:12.634Z,25.47
2018-12-06T17:49:40.274Z,24.90
2018-12-06T17:52:07.933Z,24.47
2018-12-06T17:54:35.592Z,25.10
2018-12-06T17:57:03.244Z,26.20
2018-12-06T17:59:30.828Z,25.27
2018-12-06T18:01:58.402Z,23.60
2018-12-06T18:04:26.136Z,23.80
2018-12-06T18:06:53.883Z,25.10
2018-12-06T18:09:21.415Z,23.50
2018-12-06T18:11:48.949Z,24.60
2018-12-06T18:14:16.570Z,24.67
2018-12-06T18:16:44.164Z,23.80
2018-12-06T18:19:11.731Z,26.07
2018-12-06T18:21:39.386Z,24.30
2018-12-06T18:24:18.345Z,24.80
2018-12-06T18:26:43.590Z,24.13
2018-12-06T18:29:12.695Z,23.87
2018-12-06T18:31:40.622Z,22.67
2018-12-06T18:34:08.619Z,24.13
2018-12-06T18:36:44.115Z,24.53
2018-12-06T18:39:11.772Z,24.40
2018-12-06T18:41:39.310Z,23.37
2018-12-06T18:44:06.833Z,23.30
2018-12-06T18:46:34.513Z,24.67
2018-12-06T18:49:02.385Z,23.07
2018-12-06T18:51:30.114Z,25.10
2018-12-06T18:53:57.657Z,25.57
2018-12-06T18:56:25.302Z,24.17
2018-12-06T18:58:52.886Z,24.27
2018-12-06T19:01:20.544Z,25.50
2018-12-06T19:03:49.228Z,26.93
2018-12-06T19:06:18.639Z,25.93
2018-12-06T19:08:47.803Z,25.53
2018-12-06T19:11:17.782Z,26.50
2018-12-06T19:13:46.312Z,25.60
2018-12-06T19:16:14.778Z,26.63
2018-12-06T19:18:42.566Z,27.80
2018-12-06T19:21:11.603Z,30.37
2018-12-06T19:23:42.146Z,30.07
2018-12-06T19:26:10.883Z,29.07
2018-12-06T19:28:39.634Z,31.57
2018-12-06T19:31:07.779Z,30.50
2018-12-06T19:33:36.206Z,33.97
2018-12-06T19:36:04.430Z,31.00
2018-12-06T19:38:36.294Z,35.07
2018-12-06T19:43:53.942Z,34.53
2018-12-06T19:46:23.737Z,34.07
2018-12-06T19:51:40.690Z,34.30
2018-12-06T19:54:09.352Z,35.37
2018-12-06T19:56:39.855Z,33.93
2018-12-06T19:59:07.665Z,36.33
2018-12-06T20:01:36.254Z,35.03
2018-12-06T20:04:04.045Z,35.77
2018-12-06T20:06:31.957Z,34.57
2018-12-06T20:08:59.952Z,35.70
2018-12-06T20:11:28.450Z,35.03
2018-12-06T20:13:56.179Z,33.50
2018-12-06T20:16:26.263Z,32.13
2018-12-06T20:18:53.954Z,33.07
2018-12-06T20:21:22.340Z,33.30
2018-12-06T20:23:51.951Z,31.47
2018-12-06T20:26:21.081Z,30.40
2018-12-06T20:28:52.670Z,29.97
2018-12-06T20:31:20.950Z,31.53
2018-12-06T20:33:51.461Z,31.80
2018-12-06T20:36:21.090Z,31.63
2018-12-06T20:38:48.724Z,30.30
2018-12-06T20:41:16.373Z,29.60
2018-12-06T20:43:43.915Z,31.17
2018-12-06T20:46:12.175Z,29.03
2018-12-06T20:48:39.795Z,30.03
2018-12-06T20:51:07.371Z,29.43
2018-12-06T20:53:35.148Z,28.90
2018-12-06T20:56:03.197Z,33.17
2018-12-06T20:58:31.290Z,31.60
2018-12-06T21:00:59.174Z,26.27
2018-12-06T21:03:28.171Z,30.10
2018-12-06T21:06:02.524Z,30.03
2018-12-06T21:08:30.343Z,30.20
2018-12-06T21:10:57.983Z,30.20
2018-12-06T21:13:25.631Z,30.03
2018-12-06T21:15:55.366Z,28.70
2018-12-06T21:18:23.094Z,29.00
2018-12-06T21:20:51.141Z,29.23
2018-12-06T21:23:18.998Z,29.70
2018-12-06T21:25:46.660Z,29.40
2018-12-06T21:28:14.177Z,29.47
2018-12-06T21:30:41.842Z,27.30
2018-12-06T21:33:09.410Z,27.37
2018-12-06T21:35:37.244Z,28.77
2018-12-06T21:38:06.949Z,28.50
2018-12-06T21:40:34.581Z,25.23
2018-12-06T21:43:02.226Z,25.27
2018-12-06T21:45:29.942Z,28.13
2018-12-06T21:47:57.516Z,27.40
2018-12-06T21:50:25.175Z,28.10
2018-12-06T21:52:52.990Z,30.47
2018-12-06T21:55:20.705Z,29.07
2018-12-06T21:57:48.606Z,28.03
2018-12-06T22:00:16.299Z,29.67
2018-12-06T22:02:44.060Z,28.33
2018-12-06T22:05:11.703Z,30.10
2018-12-06T22:07:39.439Z,28.97
2018-12-06T22:10:08.106Z,28.40
2018-12-06T22:12:35.856Z,27.13
2018-12-06T22:15:04.053Z,24.70
2018-12-06T22:17:31.953Z,26.10
2018-12-06T22:19:59.595Z,25.33
2018-12-06T22:22:27.366Z,25.40
2018-12-06T22:24:55.322Z,27.80
2018-12-06T22:27:22.948Z,26.50
2018-12-06T22:29:50.644Z,27.70
2018-12-06T22:32:18.248Z,30.17
2018-12-06T22:34:46.062Z,29.30
2018-12-06T22:37:13.763Z,27.37
2018-12-06T22:39:41.619Z,27.57
2018-12-06T22:42:09.232Z,26.70
2018-12-06T22:44:36.980Z,27.73
2018-12-06T22:47:04.706Z,27.07
2018-12-06T22:49:32.307Z,26.70
2018-12-06T22:51:59.950Z,24.80
2018-12-06T22:54:28.000Z,24.83
2018-12-06T22:56:55.659Z,24.80
2018-12-06T22:59:23.417Z,25.17
2018-12-06T23:01:51.229Z,25.03
2018-12-06T23:04:19.926Z,23.97
2018-12-06T23:06:47.685Z,24.50
2018-12-06T23:09:15.444Z,22.93
2018-12-06T23:11:43.121Z,22.90
2018-12-06T23:14:11.057Z,23.70
2018-12-06T23:16:38.901Z,21.93
2018-12-06T23:19:06.839Z,22.80
2018-12-06T23:21:34.853Z,20.40
2018-12-06T23:24:02.511Z,21.30
2018-12-06T23:26:30.170Z,20.77
2018-12-06T23:28:57.784Z,19.40
2018-12-06T23:31:25.347Z,18.27
2018-12-06T23:33:53.362Z,19.07
2018-12-06T23:36:21.789Z,20.57
2018-12-06T23:38:52.447Z,17.77
2018-12-06T23:41:20.494Z,17.97
2018-12-06T23:43:48.139Z,15.60
2018-12-06T23:46:15.707Z,16.57
2018-12-06T23:48:43.946Z,15.13
2018-12-06T23:51:23.137Z,14.80
2018-12-06T23:53:50.725Z,14.53
2018-12-06T23:56:18.379Z,14.00
2018-12-06T23:58:46.074Z,14.50
